createdAt,value
2019-05-23T00:00:37.683Z,59.60
2019-05-23T00:06:22.385Z,55.57
2019-05-23T00:11:30.636Z,56.57
2019-05-23T00:16:38.988Z,55.60
2019-05-23T00:21:44.295Z,52.00
2019-05-23T00:26:51.199Z,62.90
2019-05-23T00:31:58.782Z,55.43
2019-05-23T00:37:06.859Z,50.60
2019-05-23T00:42:12.409Z,48.17
2019-05-23T00:47:17.592Z,46.83
2019-05-23T00:52:23.282Z,45.20
2019-05-23T00:57:28.615Z,42.77
2019-05-23T01:02:34.104Z,36.73
2019-05-23T01:07:46.307Z,39.87
2019-05-23T01:13:28.753Z,39.23
2019-05-23T01:18:37.323Z,34.93
2019-05-23T01:24:20.254Z,33.23
2019-05-23T01:29:37.804Z,32.37
2019-05-23T01:35:15.585Z,28.77
2019-05-23T01:40:20.962Z,29.37
2019-05-23T01:45:26.884Z,30.93
2019-05-23T01:50:32.955Z,30.80
2019-05-23T01:55:38.335Z,34.00
2019-05-23T02:00:44.546Z,29.57
2019-05-23T02:05:50.413Z,28.33
2019-05-23T02:10:55.782Z,33.27
2019-05-23T02:16:38.338Z,29.63
2019-05-23T02:21:45.418Z,28.13
2019-05-23T02:27:28.263Z,28.30
2019-05-23T02:32:34.563Z,32.03
2019-05-23T02:37:41.040Z,31.83
2019-05-23T02:42:46.025Z,31.50
2019-05-23T02:48:29.459Z,35.87
2019-05-23T02:53:35.552Z,30.53
2019-05-23T02:59:18.461Z,32.23
2019-05-23T03:04:25.107Z,31.07
2019-05-23T03:10:07.335Z,35.13
2019-05-23T03:15:14.818Z,38.27
2019-05-23T03:20:21.865Z,33.73
2019-05-23T03:25:31.794Z,41.33
2019-05-23T03:31:29.538Z,37.83
2019-05-23T03:36:24.530Z,36.27
2019-05-23T03:42:07.657Z,36.33
2019-05-23T03:47:14.844Z,36.33
2019-05-23T03:52:21.417Z,39.53
2019-05-23T03:57:27.923Z,36.10
2019-05-23T04:03:12.428Z,31.83
2019-05-23T04:08:17.562Z,29.00
2019-05-23T04:13:23.956Z,29.97
2019-05-23T04:18:30.028Z,31.93
2019-05-23T04:24:11.455Z,28.20
2019-05-23T04:29:20.076Z,26.10
2019-05-23T04:34:26.061Z,24.50
2019-05-23T04:39:31.250Z,24.50
2019-05-23T04:45:14.492Z,22.93
2019-05-23T04:50:19.542Z,26.33
2019-05-23T04:55:24.701Z,18.13
2019-05-23T05:00:30.051Z,19.80
2019-05-23T05:05:36.746Z,16.27
2019-05-23T05:10:43.153Z,18.90
2019-05-23T05:16:25.017Z,17.47
2019-05-23T05:21:36.594Z,16.57
2019-05-23T05:27:20.811Z,18.70
2019-05-23T05:32:43.179Z,14.40
2019-05-23T05:37:35.502Z,17.67
2019-05-23T05:42:41.840Z,16.67
2019-05-23T05:47:47.993Z,23.13
2019-05-23T05:52:53.381Z,15.00
2019-05-23T05:58:35.205Z,19.43
2019-05-23T06:03:40.477Z,16.13
2019-05-23T06:08:47.242Z,14.00
2019-05-23T06:13:52.453Z,13.80
2019-05-23T06:19:35.019Z,18.90
2019-05-23T06:24:48.398Z,18.07
2019-05-23T06:29:49.255Z,16.03
2019-05-23T06:34:55.849Z,21.57
2019-05-23T06:40:38.085Z,21.10
2019-05-23T06:45:50.198Z,20.93
2019-05-23T06:50:55.191Z,15.00
2019-05-23T06:56:00.230Z,18.70
2019-05-23T07:01:41.813Z,17.70
2019-05-23T07:06:46.784Z,16.83
2019-05-23T07:12:29.354Z,18.63
2019-05-23T07:17:35.051Z,14.10
2019-05-23T07:22:40.341Z,16.50
2019-05-23T07:27:45.581Z,19.17
2019-05-23T07:33:27.118Z,15.97
2019-05-23T07:38:32.229Z,12.93
2019-05-23T07:43:37.066Z,17.93
2019-05-23T07:48:42.513Z,21.07
2019-05-23T07:53:49.187Z,18.80
2019-05-23T07:58:54.416Z,13.80
2019-05-23T08:04:19.917Z,15.10
2019-05-23T08:09:09.787Z,13.80
2019-05-23T08:14:52.593Z,11.43
2019-05-23T08:19:57.629Z,10.63
2019-05-23T08:25:42.309Z,15.30
2019-05-23T08:30:47.290Z,15.00
2019-05-23T08:35:53.545Z,15.27
2019-05-23T08:40:58.878Z,15.17
2019-05-23T08:46:04.411Z,19.20
2019-05-23T08:51:13.314Z,9.77
2019-05-23T08:56:56.310Z,12.17
2019-05-23T09:02:03.823Z,10.10
2019-05-23T09:07:48.388Z,6.63
2019-05-23T09:12:55.202Z,12.83
2019-05-23T09:18:00.411Z,6.93
2019-05-23T09:23:10.063Z,6.60
2019-05-23T09:28:51.957Z,3.47
2019-05-23T09:33:57.171Z,5.93
2019-05-23T09:39:40.549Z,6.80
2019-05-23T09:44:45.890Z,6.07
2019-05-23T09:50:28.151Z,3.93
2019-05-23T09:55:34.218Z,6.17
2019-05-23T10:00:40.089Z,7.60
2019-05-23T10:05:45.678Z,7.40
2019-05-23T10:11:27.014Z,4.07
2019-05-23T10:16:32.550Z,5.00
2019-05-23T10:21:37.539Z,4.90
2019-05-23T10:26:42.463Z,9.17
2019-05-23T10:32:24.096Z,5.23
2019-05-23T10:37:29.259Z,3.03
2019-05-23T10:43:11.415Z,5.63
2019-05-23T10:48:16.855Z,3.80
2019-05-23T10:53:58.203Z,3.97
2019-05-23T10:59:03.388Z,7.77
2019-05-23T11:04:08.923Z,4.47
2019-05-23T11:09:14.952Z,10.60
2019-05-23T11:14:20.263Z,8.83
2019-05-23T11:19:25.545Z,5.53
2019-05-23T11:24:30.621Z,4.10
2019-05-23T11:29:35.802Z,9.30
2019-05-23T11:34:41.455Z,4.03
2019-05-23T11:39:49.461Z,4.70
2019-05-23T11:44:53.294Z,4.23
2019-05-23T11:49:58.526Z,2.57
2019-05-23T11:55:06.047Z,4.20
2019-05-23T12:00:15.532Z,2.77
2019-05-23T12:05:22.182Z,1.67
2019-05-23T12:10:27.682Z,3.57
2019-05-23T12:15:34.374Z,1.90
2019-05-23T12:20:39.295Z,2.00
2019-05-23T12:25:44.314Z,4.13
2019-05-23T12:31:26.654Z,3.00
2019-05-23T12:36:32.145Z,3.57
2019-05-23T12:41:37.770Z,3.43
2019-05-23T12:46:42.726Z,2.37
2019-05-23T12:51:55.199Z,4.97
2019-05-23T12:57:00.974Z,4.37
2019-05-23T13:02:07.634Z,2.90
2019-05-23T13:07:49.279Z,7.97
2019-05-23T13:12:54.445Z,3.40
2019-05-23T13:17:59.529Z,2.47
2019-05-23T13:23:21.083Z,1.67
2019-05-23T13:29:03.733Z,2.50
2019-05-23T13:34:11.706Z,0.90
2019-05-23T13:39:54.000Z,3.47
2019-05-23T13:44:59.189Z,2.10
2019-05-23T13:50:41.175Z,1.87
2019-05-23T13:55:46.295Z,2.73
2019-05-23T14:00:52.114Z,1.93
2019-05-23T14:05:57.188Z,2.20
2019-05-23T14:11:02.235Z,4.93
2019-05-23T14:16:07.635Z,2.07
2019-05-23T14:21:13.186Z,1.50
2019-05-23T14:26:18.888Z,3.13
2019-05-23T14:31:24.088Z,1.43
2019-05-23T14:36:32.335Z,2.50
2019-05-23T14:41:45.159Z,5.03
2019-05-23T14:46:47.615Z,4.23
2019-05-23T14:51:55.949Z,3.43
2019-05-23T14:57:01.629Z,3.17
2019-05-23T15:02:08.315Z,24.27
2019-05-23T15:07:13.671Z,2.77
2019-05-23T15:12:18.845Z,1.37
2019-05-23T15:17:24.309Z,2.97
2019-05-23T15:22:29.591Z,1.83
2019-05-23T15:27:34.574Z,2.43
2019-05-23T15:32:39.922Z,6.63
2019-05-23T15:37:45.181Z,6.30
2019-05-23T15:42:50.155Z,4.27
2019-05-23T15:47:56.160Z,3.00
2019-05-23T15:53:02.801Z,1.60
2019-05-23T15:58:09.454Z,2.57
2019-05-23T16:03:16.322Z,2.90
2019-05-23T16:08:21.595Z,1.73
2019-05-23T16:13:26.549Z,1.03
2019-05-23T16:18:31.516Z,3.57
2019-05-23T16:23:36.676Z,2.07
2019-05-23T16:28:41.635Z,2.93
2019-05-23T16:33:47.132Z,1.70
2019-05-23T16:38:52.033Z,0.90
2019-05-23T16:43:57.228Z,2.50
2019-05-23T16:49:02.363Z,0.80
2019-05-23T16:54:07.336Z,2.67
2019-05-23T16:59:13.899Z,1.77
2019-05-23T17:04:20.647Z,3.00
2019-05-23T17:09:31.254Z,1.00
2019-05-23T17:14:35.419Z,1.87
2019-05-23T17:19:41.898Z,1.90
2019-05-23T17:24:48.517Z,4.70
2019-05-23T17:30:31.884Z,4.57
2019-05-23T17:35:36.981Z,3.33
2019-05-23T17:40:42.270Z,4.13
2019-05-23T17:45:47.327Z,2.80
2019-05-23T17:50:52.355Z,3.60
2019-05-23T17:55:58.023Z,4.33
2019-05-23T18:01:03.613Z,3.57
2019-05-23T18:06:09.793Z,4.07
2019-05-23T18:11:15.882Z,3.47
2019-05-23T18:16:22.035Z,4.00
2019-05-23T18:21:27.872Z,4.93
2019-05-23T18:26:33.494Z,5.67
2019-05-23T18:31:40.514Z,5.50
2019-05-23T18:36:47.486Z,6.63
2019-05-23T18:41:52.453Z,4.07
2019-05-23T18:46:59.383Z,5.03
2019-05-23T18:52:05.028Z,2.83
2019-05-23T18:57:10.502Z,4.20
2019-05-23T19:02:15.742Z,4.83
2019-05-23T19:07:21.016Z,7.40
2019-05-23T19:12:26.261Z,5.40
2019-05-23T19:17:31.516Z,9.30
2019-05-23T19:23:13.493Z,7.83
2019-05-23T19:28:19.046Z,6.77
2019-05-23T19:33:25.363Z,4.53
2019-05-23T19:38:30.826Z,4.07
2019-05-23T19:43:36.607Z,5.97
2019-05-23T19:48:42.799Z,5.77
2019-05-23T19:53:49.010Z,5.37
2019-05-23T19:58:54.377Z,10.67
2019-05-23T20:04:00.188Z,5.50
2019-05-23T20:09:09.699Z,7.50
2019-05-23T20:14:15.299Z,6.97
2019-05-23T20:19:20.318Z,6.27
2019-05-23T20:24:25.235Z,5.77
2019-05-23T20:29:30.474Z,54.70
2019-05-23T20:34:35.539Z,11.03
2019-05-23T20:39:40.580Z,16.17
2019-05-23T20:44:45.485Z,15.50
2019-05-23T20:49:50.550Z,6.43
2019-05-23T20:54:55.399Z,5.77
2019-05-23T21:00:00.433Z,6.37
2019-05-23T21:05:07.131Z,10.50
2019-05-23T21:10:15.427Z,16.53
2019-05-23T21:15:20.429Z,23.03
2019-05-23T21:20:25.276Z,19.67
2019-05-23T21:25:30.989Z,18.30
2019-05-23T21:30:36.014Z,22.37
2019-05-23T21:36:17.425Z,31.43
2019-05-23T21:41:22.443Z,13.97
2019-05-23T21:46:27.624Z,15.70
2019-05-23T21:51:33.961Z,18.83
2019-05-23T21:56:39.129Z,22.80
2019-05-23T22:01:45.539Z,24.33
2019-05-23T22:06:55.663Z,19.40
2019-05-23T22:12:01.114Z,16.70
2019-05-23T22:17:06.132Z,29.90
2019-05-23T22:22:11.202Z,24.30
2019-05-23T22:27:16.404Z,26.37
2019-05-23T22:32:23.187Z,23.00
2019-05-23T22:37:29.390Z,26.10
2019-05-23T22:42:35.255Z,23.93
2019-05-23T22:47:40.154Z,31.37
2019-05-23T22:52:45.005Z,25.57
2019-05-23T22:57:49.921Z,30.87
2019-05-23T23:02:54.920Z,31.47
2019-05-23T23:08:00.009Z,34.23
2019-05-23T23:13:04.937Z,28.77
2019-05-23T23:18:48.233Z,20.93
2019-05-23T23:23:54.314Z,25.63
2019-05-23T23:29:36.004Z,27.40
2019-05-23T23:34:40.984Z,31.27
2019-05-23T23:39:45.851Z,21.53
2019-05-23T23:44:50.684Z,22.40
2019-05-23T23:49:57.149Z,16.53
2019-05-23T23:55:03.640Z,27.17
